• pl
  • eng

Awiacja
TAF dla lotnisk wojskowych 00:30 22.01.2017

TAF EPCE 212300Z 2200/2209 21005KT 0400 FZFG VV002 BECMG 2203/2205
20008KT 3000 BR OVC005 =

TAF EPCE 022300Z 3000/0309 26008KT 9999 SCT030 PROB40 TEMPO
0301/0306 1500 SHSN BKN004 BKN010CB =

TAF EPDA 212300Z 2200/2209 20006KT 5000 BR OVC005 TEMPO 2200/2204
3000 BR OVC002 =

TAF EPKS 212300Z 2200/2309 VRB02KT 0200 FG OVC002 =

TAF AMD EPLK 212300Z 2200/2209 18002KT 0400 FG OVC002 TEMPO 2200/2209
0800 FZFG BKN007=

TAF EPMB 212300Z 2200/2209 20004KT 1500 BR OVC004 PROB40 2200/2208
0500 FG OVC003 BECMG 2208/2209 21008KT 3000 BR OVC004=

TAF EPMI 212300Z 2200/2209 25004KT 3000 BR BKN003 OVC007 PROB40 TEMPO
2200/2206 1000 BR OVC002 BECMG 2207/2209 5000 BR BKN005 =

TAF EPMM 212300Z 2200/2209 VRB03KT 1000 BR OVC004 TEMPO 2200/2206
0500 FG OVC002 PROB40 2200/2206 FZFG =

TAF EPOK 212300Z 2200/2209 24005KT 0500 FG BKN002 TEMPO 2200/2204
1200 DZ BR BKN003 PROB40 2204/2207 3000 BR BKN005 =

TAF EPPW 212300Z 2200/2209 VRB02KT 0400 FG OVC002 TEMPO 2207/2209
1500 BR BKN007 OVC010 =

TAF EPSN 212300Z 2200/2209 20004KT 0800 FZFG OVC002 PROB40 2200/2209
2000 BR OVC004 =
Awiacja.imgw.pl jest pogodowym serwisem informacyjnym
Instytutu Meteorologii i Gospodarki Wodnej Państwowego Instytutu Badawczego.
Copyright IMGW PIB 2009-2011© Wszelkie prawa zastrzeżone.